createdAt,value
2017-08-30T00:00:52.308Z,18.70
2017-08-30T00:03:20.019Z,18.90
2017-08-30T00:05:47.695Z,19.10
2017-08-30T00:08:15.401Z,19.20
2017-08-30T00:10:43.068Z,19.30
2017-08-30T00:13:10.781Z,19.30
2017-08-30T00:15:38.445Z,19.40
2017-08-30T00:18:06.183Z,19.40
2017-08-30T00:20:33.856Z,19.30
2017-08-30T00:23:01.568Z,19.20
2017-08-30T00:25:41.066Z,18.90
2017-08-30T00:28:08.785Z,18.80
2017-08-30T00:30:37.228Z,18.50
2017-08-30T00:33:04.955Z,18.50
2017-08-30T00:35:32.659Z,18.60
2017-08-30T00:38:00.409Z,18.40
2017-08-30T00:40:28.116Z,18.20
2017-08-30T00:42:55.843Z,18.20
2017-08-30T00:45:23.522Z,18.30
2017-08-30T00:47:51.238Z,18.20
2017-08-30T00:50:18.931Z,18.40
2017-08-30T00:52:46.640Z,18.30
2017-08-30T00:55:14.363Z,18.30
2017-08-30T00:57:42.093Z,18.10
2017-08-30T01:00:09.831Z,18.10
2017-08-30T01:02:37.547Z,18.20
2017-08-30T01:05:05.235Z,18.30
2017-08-30T01:07:32.952Z,18.60
2017-08-30T01:10:00.615Z,18.60
2017-08-30T01:12:28.323Z,18.50
2017-08-30T01:14:55.989Z,18.40
2017-08-30T01:17:23.651Z,18.50
2017-08-30T01:19:51.363Z,18.30
2017-08-30T01:22:19.075Z,18.30
2017-08-30T01:24:46.776Z,18.30
2017-08-30T01:27:14.436Z,18.20
2017-08-30T01:29:42.136Z,18.20
2017-08-30T01:32:09.791Z,18.20
2017-08-30T01:34:37.497Z,18.20
2017-08-30T01:37:05.156Z,18.40
2017-08-30T01:39:32.881Z,18.60
2017-08-30T01:42:00.546Z,18.50
2017-08-30T01:44:28.259Z,18.30
2017-08-30T01:46:55.929Z,18.40
2017-08-30T01:49:23.631Z,18.50
2017-08-30T01:51:51.296Z,18.50
2017-08-30T01:54:19.005Z,18.50
2017-08-30T01:56:46.699Z,18.40
2017-08-30T01:59:14.411Z,18.10
2017-08-30T02:01:42.099Z,18.00
2017-08-30T02:04:09.816Z,18.00
2017-08-30T02:06:37.487Z,17.90
2017-08-30T02:09:05.232Z,17.90
2017-08-30T02:11:32.904Z,17.60
2017-08-30T02:14:00.620Z,17.80
2017-08-30T02:16:28.287Z,18.00
2017-08-30T02:18:56.002Z,18.20
2017-08-30T02:21:23.667Z,18.20
2017-08-30T02:23:51.380Z,18.20
2017-08-30T02:26:19.045Z,18.20
2017-08-30T02:28:46.751Z,18.10
2017-08-30T02:31:14.424Z,18.20
2017-08-30T02:33:42.136Z,18.10
2017-08-30T02:36:09.806Z,18.20
2017-08-30T02:38:37.500Z,18.00
2017-08-30T02:41:05.219Z,18.10
2017-08-30T02:43:32.897Z,18.00
2017-08-30T02:46:00.628Z,18.00
2017-08-30T02:48:28.283Z,18.00
2017-08-30T02:50:55.987Z,18.20
2017-08-30T02:53:23.655Z,18.00
2017-08-30T02:55:51.369Z,18.00
2017-08-30T02:58:19.032Z,17.90
2017-08-30T03:00:46.748Z,17.80
2017-08-30T03:03:14.407Z,17.90
2017-08-30T03:05:42.084Z,17.90
2017-08-30T03:08:09.785Z,17.90
2017-08-30T03:10:37.449Z,17.80
2017-08-30T03:13:05.147Z,17.90
2017-08-30T03:15:32.816Z,17.80
2017-08-30T03:18:00.532Z,17.60
2017-08-30T03:20:28.190Z,17.50
2017-08-30T03:22:55.904Z,17.80
2017-08-30T03:25:23.567Z,17.70
2017-08-30T03:27:51.231Z,17.50
2017-08-30T03:30:18.933Z,17.50
2017-08-30T03:32:46.591Z,17.30
2017-08-30T03:35:14.295Z,17.40
2017-08-30T03:37:41.963Z,17.40
2017-08-30T03:40:09.663Z,17.20
2017-08-30T03:42:37.322Z,17.10
2017-08-30T03:45:05.024Z,17.10
2017-08-30T03:47:32.688Z,17.00
2017-08-30T03:50:00.399Z,16.90
2017-08-30T03:52:28.059Z,16.90
2017-08-30T03:54:55.731Z,17.10
2017-08-30T03:57:23.432Z,17.10
2017-08-30T03:59:51.106Z,17.10
2017-08-30T04:02:18.819Z,17.20
2017-08-30T04:04:46.488Z,17.20
2017-08-30T04:07:14.199Z,17.10
2017-08-30T04:09:41.868Z,16.90
2017-08-30T04:12:09.600Z,17.20
2017-08-30T04:14:37.268Z,17.40
2017-08-30T04:17:04.988Z,17.40
2017-08-30T04:19:32.655Z,17.50
2017-08-30T04:22:00.360Z,17.70
2017-08-30T04:24:28.030Z,17.70
2017-08-30T04:26:55.735Z,17.60
2017-08-30T04:29:23.400Z,17.60
2017-08-30T04:31:51.142Z,17.50
2017-08-30T04:34:18.811Z,17.50
2017-08-30T04:36:46.519Z,17.60
2017-08-30T04:39:14.183Z,17.60
2017-08-30T04:41:41.900Z,17.60
2017-08-30T04:44:09.584Z,17.40
2017-08-30T04:46:37.291Z,17.40
2017-08-30T04:49:04.952Z,17.30
2017-08-30T04:51:32.668Z,17.30
2017-08-30T04:54:00.340Z,17.50
2017-08-30T04:56:28.072Z,17.40
2017-08-30T04:58:55.764Z,17.40
2017-08-30T05:01:23.525Z,17.40
2017-08-30T05:03:51.190Z,17.40
2017-08-30T05:06:18.897Z,17.60
2017-08-30T05:08:46.559Z,17.60
2017-08-30T05:11:14.269Z,17.60
2017-08-30T05:13:41.944Z,17.50
2017-08-30T05:16:09.617Z,17.40
2017-08-30T05:18:37.335Z,17.30
2017-08-30T05:21:05.003Z,17.40
2017-08-30T05:23:32.711Z,17.50
2017-08-30T05:26:00.381Z,17.60
2017-08-30T05:28:28.088Z,17.70
2017-08-30T05:30:55.746Z,17.80
2017-08-30T05:33:23.452Z,17.70
2017-08-30T05:35:51.125Z,17.80
2017-08-30T05:38:18.853Z,17.90
2017-08-30T05:40:46.515Z,17.90
2017-08-30T05:43:14.232Z,17.90
2017-08-30T05:45:41.899Z,18.10
2017-08-30T05:48:09.617Z,18.30
2017-08-30T05:50:37.284Z,18.40
2017-08-30T05:53:04.989Z,18.50
2017-08-30T05:55:32.662Z,18.60
2017-08-30T05:58:00.372Z,18.60
2017-08-30T06:00:28.080Z,18.70
2017-08-30T06:02:55.783Z,18.70
2017-08-30T06:05:24.216Z,18.70
2017-08-30T06:07:51.927Z,18.70
2017-08-30T06:10:19.591Z,18.80
2017-08-30T06:12:47.299Z,18.90
2017-08-30T06:15:14.969Z,19.00
2017-08-30T06:17:42.683Z,19.00
2017-08-30T06:20:10.361Z,19.10
2017-08-30T06:22:38.073Z,19.20
2017-08-30T06:25:06.500Z,19.20
2017-08-30T06:27:34.155Z,19.20
2017-08-30T06:30:01.856Z,19.40
2017-08-30T06:32:29.516Z,19.60
2017-08-30T06:34:57.225Z,20.00
2017-08-30T06:37:24.891Z,20.20
2017-08-30T06:39:52.596Z,20.40
2017-08-30T06:42:20.262Z,20.50
2017-08-30T06:44:48.752Z,20.70
2017-08-30T06:47:16.420Z,20.70
2017-08-30T06:49:44.131Z,20.80
2017-08-30T06:52:11.800Z,21.00
2017-08-30T06:54:39.515Z,21.00
2017-08-30T06:57:07.185Z,21.10
2017-08-30T06:59:34.852Z,21.20
2017-08-30T07:02:02.561Z,21.40
2017-08-30T07:04:30.223Z,21.40
2017-08-30T07:06:57.959Z,21.40
2017-08-30T07:09:25.623Z,21.50
2017-08-30T07:11:53.342Z,21.70
2017-08-30T07:14:21.016Z,21.80
2017-08-30T07:16:48.727Z,22.00
2017-08-30T07:19:16.395Z,22.20
2017-08-30T07:21:44.876Z,22.40
2017-08-30T07:24:12.535Z,22.40
2017-08-30T07:26:40.198Z,22.70
2017-08-30T07:29:07.903Z,22.90
2017-08-30T07:31:35.574Z,23.10
2017-08-30T07:34:03.284Z,23.30
2017-08-30T07:36:30.985Z,23.50
2017-08-30T07:38:58.711Z,23.60
2017-08-30T07:41:26.414Z,23.60
2017-08-30T07:43:54.136Z,23.60
2017-08-30T07:46:21.804Z,23.80
2017-08-30T07:48:49.539Z,23.80
2017-08-30T07:51:17.207Z,23.90
2017-08-30T07:53:44.925Z,24.10
2017-08-30T07:56:12.604Z,24.10
2017-08-30T07:58:40.356Z,24.10
2017-08-30T08:01:08.034Z,24.20
2017-08-30T08:03:35.749Z,24.40
2017-08-30T08:06:03.419Z,24.40
2017-08-30T08:08:31.117Z,24.40
2017-08-30T08:10:58.783Z,24.50
2017-08-30T08:13:26.488Z,24.60
2017-08-30T08:15:54.157Z,24.70
2017-08-30T08:18:21.862Z,24.80
2017-08-30T08:20:49.519Z,24.90
2017-08-30T08:23:17.271Z,24.90
2017-08-30T08:25:44.930Z,25.00
2017-08-30T08:28:12.594Z,25.30
2017-08-30T08:30:40.303Z,25.30
2017-08-30T08:33:07.975Z,25.20
2017-08-30T08:35:35.693Z,25.10
2017-08-30T08:38:03.351Z,25.10
2017-08-30T08:40:31.071Z,25.30
2017-08-30T08:45:32.627Z,25.80
2017-08-30T08:48:00.292Z,26.10
2017-08-30T08:50:28.035Z,26.40
2017-08-30T08:52:55.705Z,26.50
2017-08-30T08:55:23.415Z,26.60
2017-08-30T08:57:51.080Z,26.60
2017-08-30T09:00:19.554Z,26.70
2017-08-30T09:02:47.212Z,26.70
2017-08-30T09:05:14.913Z,26.80
2017-08-30T09:07:42.585Z,26.80
2017-08-30T09:10:10.287Z,27.10
2017-08-30T09:12:37.939Z,27.30
2017-08-30T09:15:05.697Z,27.40
2017-08-30T09:17:33.354Z,27.40
2017-08-30T09:20:01.776Z,27.60
2017-08-30T09:22:29.483Z,27.60
2017-08-30T09:24:57.148Z,27.60
2017-08-30T09:27:24.929Z,27.70
2017-08-30T09:29:52.598Z,27.90
2017-08-30T09:32:20.296Z,28.20
2017-08-30T09:34:47.996Z,28.20
2017-08-30T09:37:15.692Z,28.30
2017-08-30T09:39:43.356Z,28.50
2017-08-30T09:42:11.060Z,28.50
2017-08-30T09:44:38.726Z,28.70
2017-08-30T09:47:06.435Z,28.70
2017-08-30T09:49:34.096Z,28.70
2017-08-30T09:52:01.796Z,28.90
2017-08-30T09:54:29.452Z,28.90
2017-08-30T09:56:57.168Z,28.60
2017-08-30T09:59:24.841Z,28.50
2017-08-30T10:01:52.543Z,28.50
2017-08-30T10:04:20.208Z,28.70
2017-08-30T10:06:47.908Z,28.90
2017-08-30T10:09:15.612Z,29.00
2017-08-30T10:11:43.275Z,29.20
2017-08-30T10:14:10.975Z,29.30
2017-08-30T10:16:38.631Z,29.40
2017-08-30T10:19:06.343Z,29.60
2017-08-30T10:21:34.028Z,29.70
2017-08-30T10:24:01.726Z,29.60
2017-08-30T10:26:29.384Z,29.40
2017-08-30T10:28:57.080Z,29.60
2017-08-30T10:31:24.743Z,29.60
2017-08-30T10:33:52.444Z,29.60
2017-08-30T10:36:20.117Z,29.60
2017-08-30T10:38:47.823Z,29.60
2017-08-30T10:41:15.516Z,29.70
2017-08-30T10:43:43.228Z,29.90
2017-08-30T10:46:10.898Z,30.00
2017-08-30T10:48:38.606Z,30.30
2017-08-30T10:51:06.275Z,30.50
2017-08-30T10:53:33.980Z,30.50
2017-08-30T10:56:01.644Z,30.60
2017-08-30T10:58:29.356Z,30.80
2017-08-30T11:00:57.012Z,31.00
2017-08-30T11:03:24.687Z,31.00
2017-08-30T11:05:52.383Z,31.00
2017-08-30T11:08:20.046Z,31.00
2017-08-30T11:10:47.749Z,31.20
2017-08-30T11:13:15.404Z,31.10
2017-08-30T11:15:43.108Z,31.30
2017-08-30T11:18:10.764Z,31.40
2017-08-30T11:20:38.469Z,31.60
2017-08-30T11:23:06.169Z,31.60
2017-08-30T11:25:33.874Z,31.40
2017-08-30T11:28:01.539Z,31.50
2017-08-30T11:30:29.256Z,31.50
2017-08-30T11:32:56.929Z,31.80
2017-08-30T11:35:24.631Z,32.00
2017-08-30T11:37:52.288Z,32.20
2017-08-30T11:40:20.760Z,31.90
2017-08-30T11:42:49.183Z,31.90
2017-08-30T11:45:16.880Z,31.90
2017-08-30T11:47:44.543Z,31.80
2017-08-30T11:50:12.244Z,32.00
2017-08-30T11:52:39.908Z,32.00
2017-08-30T11:55:07.567Z,32.20
2017-08-30T11:57:35.269Z,32.10
2017-08-30T12:00:02.943Z,32.10
2017-08-30T12:02:30.646Z,32.20
2017-08-30T12:04:58.311Z,32.40
2017-08-30T12:07:26.016Z,32.60
2017-08-30T12:09:53.684Z,32.60
2017-08-30T12:12:21.413Z,32.50
2017-08-30T12:14:49.076Z,32.20
2017-08-30T12:17:16.783Z,31.80
2017-08-30T12:19:44.451Z,31.70
2017-08-30T12:22:12.157Z,32.00
2017-08-30T12:24:39.812Z,32.20
2017-08-30T12:27:07.580Z,32.00
2017-08-30T12:29:35.240Z,31.80
2017-08-30T12:32:02.948Z,31.70
2017-08-30T12:34:30.622Z,31.70
2017-08-30T12:37:05.008Z,31.70
2017-08-30T12:39:38.552Z,31.70
2017-08-30T12:42:06.260Z,31.50
2017-08-30T12:44:33.931Z,31.70
2017-08-30T12:47:01.668Z,31.70
2017-08-30T12:49:29.340Z,31.40
2017-08-30T12:51:57.010Z,31.50
2017-08-30T12:54:25.485Z,31.70
2017-08-30T12:56:53.184Z,31.70
2017-08-30T12:59:20.901Z,31.80
2017-08-30T13:01:48.563Z,31.90
2017-08-30T13:04:16.268Z,31.80
2017-08-30T13:06:43.932Z,31.80
2017-08-30T13:09:11.643Z,31.80
2017-08-30T13:11:39.304Z,32.00
2017-08-30T13:14:07.014Z,32.30
2017-08-30T13:16:34.676Z,32.50
2017-08-30T13:19:02.376Z,32.80
2017-08-30T13:21:30.039Z,32.70
2017-08-30T13:23:57.739Z,32.40
2017-08-30T13:26:25.404Z,32.30
2017-08-30T13:28:53.114Z,31.90
2017-08-30T13:31:20.780Z,31.70
2017-08-30T13:33:48.444Z,31.70
2017-08-30T13:36:16.157Z,31.40
2017-08-30T13:38:43.820Z,31.40
2017-08-30T13:41:11.515Z,31.00
2017-08-30T13:43:39.172Z,30.90
2017-08-30T13:46:06.887Z,31.00
2017-08-30T13:48:34.551Z,30.90
2017-08-30T13:51:02.272Z,31.00
2017-08-30T13:53:29.927Z,31.20
2017-08-30T13:55:57.631Z,31.20
2017-08-30T13:58:25.291Z,31.10
2017-08-30T14:00:52.996Z,31.00
2017-08-30T14:03:20.663Z,31.10
2017-08-30T14:05:48.372Z,31.10
2017-08-30T14:08:16.031Z,31.00
2017-08-30T14:10:43.734Z,31.00
2017-08-30T14:13:11.469Z,31.00
2017-08-30T14:15:39.177Z,30.90
2017-08-30T14:18:07.607Z,30.70
2017-08-30T14:20:35.328Z,30.60
2017-08-30T14:23:03.001Z,30.60
2017-08-30T14:25:30.666Z,30.60
2017-08-30T14:27:58.374Z,30.60
2017-08-30T14:30:26.040Z,30.70
2017-08-30T14:32:53.750Z,31.00
2017-08-30T14:35:21.416Z,31.10
2017-08-30T14:37:49.124Z,31.30
2017-08-30T14:40:16.794Z,31.60
2017-08-30T14:42:44.502Z,32.00
2017-08-30T14:45:12.170Z,31.90
2017-08-30T14:47:39.876Z,31.70
2017-08-30T14:50:08.308Z,31.10
2017-08-30T14:52:36.007Z,31.00
2017-08-30T14:55:03.687Z,30.80
2017-08-30T14:57:31.399Z,30.60
2017-08-30T14:59:59.074Z,30.40
2017-08-30T15:02:26.736Z,30.30
2017-08-30T15:04:55.203Z,30.20
2017-08-30T15:07:22.856Z,30.10
2017-08-30T15:09:50.560Z,30.20
2017-08-30T15:12:18.227Z,30.20
2017-08-30T15:14:45.939Z,30.20
2017-08-30T15:17:13.611Z,30.10
2017-08-30T15:19:41.359Z,29.90
2017-08-30T15:22:09.020Z,29.90
2017-08-30T15:24:36.721Z,29.80
2017-08-30T15:27:04.386Z,29.70
2017-08-30T15:29:32.095Z,29.70
2017-08-30T15:31:59.770Z,29.80
2017-08-30T15:34:27.479Z,29.80
2017-08-30T15:36:55.141Z,29.80
2017-08-30T15:39:22.849Z,29.80
2017-08-30T15:41:50.511Z,29.80
2017-08-30T15:44:18.220Z,29.80
2017-08-30T15:46:45.883Z,29.80
2017-08-30T15:49:13.591Z,29.60
2017-08-30T15:51:41.259Z,29.50
2017-08-30T15:54:09.683Z,29.40
2017-08-30T15:56:37.392Z,29.30
2017-08-30T15:59:05.060Z,29.30
2017-08-30T16:01:32.774Z,29.20
2017-08-30T16:04:00.432Z,29.10
2017-08-30T16:06:28.131Z,29.10
2017-08-30T16:08:55.787Z,28.90
2017-08-30T16:11:23.489Z,28.80
2017-08-30T16:13:51.140Z,28.70
2017-08-30T16:16:18.855Z,28.60
2017-08-30T16:18:46.508Z,28.50
2017-08-30T16:21:14.214Z,28.40
2017-08-30T16:23:41.874Z,28.30
2017-08-30T16:26:09.579Z,28.30
2017-08-30T16:28:37.240Z,28.10
2017-08-30T16:31:04.947Z,28.10
2017-08-30T16:33:32.616Z,28.10
2017-08-30T16:36:00.318Z,28.10
2017-08-30T16:38:27.974Z,28.20
2017-08-30T16:40:55.672Z,28.00
2017-08-30T16:43:23.328Z,28.00
2017-08-30T16:45:51.040Z,28.00
2017-08-30T16:48:18.704Z,27.90
2017-08-30T16:50:46.419Z,27.80
2017-08-30T16:53:14.122Z,27.80
2017-08-30T16:55:41.781Z,27.60
2017-08-30T16:58:09.488Z,27.60
2017-08-30T17:00:37.185Z,27.60
2017-08-30T17:03:04.885Z,27.60
2017-08-30T17:05:32.548Z,27.50
2017-08-30T17:08:00.305Z,27.40
2017-08-30T17:10:27.972Z,27.30
2017-08-30T17:12:55.717Z,27.20
2017-08-30T17:15:23.395Z,27.20
2017-08-30T17:17:51.112Z,27.10
2017-08-30T17:20:18.794Z,27.10
2017-08-30T17:22:46.535Z,27.00
2017-08-30T17:25:14.236Z,26.90
2017-08-30T17:27:41.978Z,26.90
2017-08-30T17:30:09.645Z,26.80
2017-08-30T17:32:37.363Z,26.80
2017-08-30T17:35:05.034Z,26.70
2017-08-30T17:37:32.696Z,26.60
2017-08-30T17:40:00.433Z,26.60
2017-08-30T17:42:28.086Z,26.60
2017-08-30T17:44:55.811Z,26.40
2017-08-30T17:47:23.475Z,26.40
2017-08-30T17:49:51.179Z,26.40
2017-08-30T17:52:18.842Z,26.20
2017-08-30T17:54:46.560Z,26.20
2017-08-30T17:57:14.228Z,26.20
2017-08-30T17:59:41.937Z,26.10
2017-08-30T18:02:09.599Z,26.00
2017-08-30T18:04:37.299Z,26.00
2017-08-30T18:07:04.971Z,25.80
2017-08-30T18:09:32.682Z,25.80
2017-08-30T18:12:00.343Z,25.70
2017-08-30T18:14:28.072Z,25.60
2017-08-30T18:16:55.772Z,25.50
2017-08-30T18:19:23.422Z,25.60
2017-08-30T18:21:51.128Z,25.60
2017-08-30T18:24:18.792Z,25.60
2017-08-30T18:26:46.488Z,25.50
2017-08-30T18:29:14.149Z,25.50
2017-08-30T18:31:41.850Z,25.40
2017-08-30T18:34:09.515Z,25.40
2017-08-30T18:36:37.216Z,25.30
2017-08-30T18:39:04.971Z,25.20
2017-08-30T18:41:32.669Z,25.30
2017-08-30T18:44:00.363Z,25.20
2017-08-30T18:46:28.066Z,25.20
2017-08-30T18:48:55.727Z,25.20
2017-08-30T18:51:23.441Z,25.10
2017-08-30T18:53:51.115Z,25.20
2017-08-30T18:56:18.833Z,25.10
2017-08-30T18:58:46.497Z,25.20
2017-08-30T19:01:14.210Z,25.10
2017-08-30T19:03:41.874Z,25.10
2017-08-30T19:06:09.608Z,25.00
2017-08-30T19:08:37.283Z,25.00
2017-08-30T19:11:05.759Z,24.90
2017-08-30T19:13:33.424Z,24.90
2017-08-30T19:16:01.128Z,24.90
2017-08-30T19:18:28.792Z,24.90
2017-08-30T19:20:57.300Z,24.70
2017-08-30T19:23:25.007Z,24.70
2017-08-30T19:25:52.724Z,24.50
2017-08-30T19:28:20.391Z,24.40
2017-08-30T19:30:48.057Z,24.40
2017-08-30T19:33:16.532Z,24.30
2017-08-30T19:35:44.200Z,24.30
2017-08-30T19:38:11.903Z,24.20
2017-08-30T19:40:39.564Z,24.20
2017-08-30T19:43:07.272Z,24.10
2017-08-30T19:45:34.935Z,24.10
2017-08-30T19:48:02.643Z,24.20
2017-08-30T19:50:30.338Z,24.10
2017-08-30T19:52:58.078Z,24.00
2017-08-30T19:55:25.771Z,24.10
2017-08-30T19:57:53.506Z,24.20
2017-08-30T20:00:21.181Z,24.20
2017-08-30T20:02:48.887Z,24.10
2017-08-30T20:05:16.579Z,24.10
2017-08-30T20:07:44.284Z,24.20
2017-08-30T20:10:11.956Z,24.10
2017-08-30T20:12:39.661Z,23.80
2017-08-30T20:15:07.349Z,23.60
2017-08-30T20:17:35.095Z,23.40
2017-08-30T20:20:02.762Z,23.40
2017-08-30T20:22:30.467Z,23.50
2017-08-30T20:24:58.132Z,23.60
2017-08-30T20:27:25.797Z,23.80
2017-08-30T20:29:53.501Z,23.80
2017-08-30T20:32:21.167Z,23.80
2017-08-30T20:34:48.875Z,23.80
2017-08-30T20:37:16.535Z,24.00
2017-08-30T20:39:44.241Z,23.90
2017-08-30T20:42:11.901Z,23.80
2017-08-30T20:44:39.597Z,23.60
2017-08-30T20:47:07.255Z,23.50
2017-08-30T20:49:34.965Z,23.40
2017-08-30T20:52:02.636Z,23.50
2017-08-30T20:54:31.111Z,23.80
2017-08-30T20:56:58.773Z,23.80
2017-08-30T20:59:26.488Z,24.00
2017-08-30T21:01:54.161Z,24.00
2017-08-30T21:04:21.862Z,23.90
2017-08-30T21:06:49.529Z,23.90
2017-08-30T21:09:17.245Z,23.80
2017-08-30T21:11:44.904Z,23.90
2017-08-30T21:14:12.620Z,23.90
2017-08-30T21:16:41.054Z,23.70
2017-08-30T21:19:08.777Z,23.70
2017-08-30T21:21:36.438Z,23.70
2017-08-30T21:24:04.101Z,23.70
2017-08-30T21:26:31.811Z,23.70
2017-08-30T21:28:59.476Z,23.60
2017-08-30T21:31:27.183Z,23.60
2017-08-30T21:33:54.851Z,23.60
2017-08-30T21:36:22.546Z,23.60
2017-08-30T21:38:50.219Z,23.50
2017-08-30T21:41:17.931Z,23.40
2017-08-30T21:43:45.596Z,23.40
2017-08-30T21:46:13.304Z,23.30
2017-08-30T21:48:40.960Z,23.30
2017-08-30T21:51:08.679Z,23.20
2017-08-30T21:53:36.344Z,23.20
2017-08-30T21:56:04.051Z,23.20
2017-08-30T21:58:31.706Z,23.20
2017-08-30T22:01:00.187Z,23.10
2017-08-30T22:03:27.859Z,23.10
2017-08-30T22:05:55.558Z,23.10
2017-08-30T22:08:23.219Z,23.00
2017-08-30T22:10:50.929Z,22.90
2017-08-30T22:13:19.355Z,22.90
2017-08-30T22:15:47.053Z,22.90
2017-08-30T22:18:14.715Z,22.90
2017-08-30T22:20:42.415Z,22.90
2017-08-30T22:23:10.067Z,22.80
2017-08-30T22:25:37.776Z,22.90
2017-08-30T22:28:05.430Z,22.90
2017-08-30T22:30:33.128Z,22.80
2017-08-30T22:33:00.780Z,22.80
2017-08-30T22:35:28.484Z,22.70
2017-08-30T22:37:56.139Z,22.70
2017-08-30T22:40:23.852Z,22.60
2017-08-30T22:42:51.567Z,22.60
2017-08-30T22:45:19.220Z,22.60
2017-08-30T22:47:46.924Z,22.60
2017-08-30T22:50:14.582Z,22.50
2017-08-30T22:52:42.270Z,22.50
2017-08-30T22:55:09.928Z,22.40
2017-08-30T22:57:37.628Z,22.40
2017-08-30T23:00:05.292Z,22.30
2017-08-30T23:02:32.996Z,22.20
2017-08-30T23:05:00.659Z,22.20
2017-08-30T23:07:28.359Z,22.20
2017-08-30T23:09:56.016Z,22.20
2017-08-30T23:12:23.735Z,22.10
2017-08-30T23:14:52.154Z,22.00
2017-08-30T23:17:19.869Z,22.00
2017-08-30T23:19:47.532Z,22.00
2017-08-30T23:22:15.227Z,21.90
2017-08-30T23:24:42.888Z,21.90
2017-08-30T23:27:10.608Z,21.90
2017-08-30T23:29:38.264Z,21.70
2017-08-30T23:32:05.959Z,21.80
2017-08-30T23:34:33.617Z,21.80
2017-08-30T23:37:01.320Z,21.90
2017-08-30T23:39:28.974Z,21.80
2017-08-30T23:41:56.638Z,21.70
2017-08-30T23:44:24.344Z,21.70
2017-08-30T23:46:52.000Z,21.70
2017-08-30T23:49:19.699Z,21.70
2017-08-30T23:51:47.360Z,21.70
2017-08-30T23:54:15.051Z,21.80
2017-08-30T23:56:42.713Z,21.70
2017-08-30T23:59:10.403Z,21.70
